createdAt,value
2022-09-15T03:02:48.991Z,1.63
2022-09-15T03:05:17.061Z,1.17
2022-09-15T03:07:44.577Z,1.10
2022-09-15T03:10:12.979Z,1.17
2022-09-15T03:12:41.097Z,1.42
2022-09-15T03:15:09.606Z,1.00
2022-09-15T03:17:37.458Z,0.93
2022-09-15T03:20:07.404Z,1.87
2022-09-15T03:22:35.199Z,0.90
2022-09-15T03:25:03.185Z,1.10
2022-09-15T03:27:30.672Z,0.95
2022-09-15T03:29:58.172Z,0.98
2022-09-15T03:32:25.794Z,1.03
2022-09-15T03:34:56.436Z,1.33
2022-09-15T03:37:27.317Z,0.80
2022-09-15T03:39:54.884Z,0.90
2022-09-15T03:42:22.626Z,1.00
2022-09-15T03:44:50.131Z,1.03
2022-09-15T03:47:17.694Z,1.00
2022-09-15T03:49:45.190Z,1.00
2022-09-15T03:52:13.233Z,1.30
2022-09-15T03:54:42.082Z,1.08
2022-09-15T03:57:09.574Z,1.13
2022-09-15T03:59:37.056Z,1.00
2022-09-15T04:02:04.786Z,0.93
2022-09-15T04:04:32.293Z,0.90
2022-09-15T04:06:59.785Z,0.80
2022-09-15T04:09:27.692Z,1.27
2022-09-15T04:11:56.816Z,0.90
2022-09-15T04:14:24.321Z,1.38
2022-09-15T04:16:52.304Z,1.10
2022-09-15T04:19:19.807Z,1.02
2022-09-15T04:21:48.154Z,1.10
2022-09-15T04:24:15.712Z,1.17
2022-09-15T04:26:43.457Z,1.13
2022-09-15T04:29:14.654Z,1.05
2022-09-15T04:31:42.494Z,1.20
2022-09-15T04:34:10.167Z,0.93
2022-09-15T04:36:37.909Z,1.10
2022-09-15T04:39:06.536Z,0.95
2022-09-15T04:41:34.746Z,0.93
2022-09-15T04:44:02.402Z,1.00
2022-09-15T04:46:31.327Z,1.00
2022-09-15T04:48:58.865Z,0.80
2022-09-15T04:51:27.190Z,0.88
2022-09-15T04:53:54.703Z,1.13
2022-09-15T04:56:23.245Z,1.55
2022-09-15T04:58:51.608Z,0.97
2022-09-15T05:01:19.929Z,0.90
2022-09-15T05:03:48.850Z,1.17
2022-09-15T05:06:17.431Z,1.00
2022-09-15T05:08:48.086Z,0.90
2022-09-15T05:11:15.583Z,0.90
2022-09-15T05:13:43.244Z,1.00
2022-09-15T05:16:12.463Z,0.88
2022-09-15T05:18:40.076Z,1.25
2022-09-15T05:21:09.651Z,1.02
2022-09-15T05:23:37.742Z,1.13
2022-09-15T05:26:06.212Z,1.30
2022-09-15T05:28:34.134Z,0.98
2022-09-15T05:31:01.839Z,1.02
2022-09-15T05:33:29.396Z,1.35
2022-09-15T05:35:58.113Z,1.00
2022-09-15T05:38:27.443Z,1.17
2022-09-15T05:40:54.981Z,1.30
2022-09-15T05:43:22.485Z,1.10
2022-09-15T05:45:55.093Z,1.00
2022-09-15T05:48:22.603Z,1.00
2022-09-15T05:50:50.761Z,1.10
2022-09-15T05:53:18.270Z,1.00
2022-09-15T05:55:47.222Z,1.23
2022-09-15T05:58:14.953Z,1.05
2022-09-15T06:00:42.604Z,1.40
2022-09-15T06:03:15.143Z,1.20
2022-09-15T06:05:42.931Z,1.20
2022-09-15T06:08:10.617Z,1.08
2022-09-15T06:10:38.566Z,1.48
2022-09-15T06:13:07.417Z,1.47
2022-09-15T06:15:35.103Z,1.20
2022-09-15T06:18:02.758Z,1.30
2022-09-15T06:20:30.235Z,1.25
2022-09-15T06:22:57.831Z,1.40
2022-09-15T06:25:25.342Z,1.43
2022-09-15T06:27:52.805Z,1.20
2022-09-15T06:30:21.702Z,1.20
2022-09-15T06:32:49.208Z,1.70
2022-09-15T06:35:17.377Z,1.45
2022-09-15T06:37:44.859Z,1.37
2022-09-15T06:40:12.698Z,1.10
2022-09-15T06:42:40.357Z,1.13
2022-09-15T06:45:08.281Z,1.27
2022-09-15T06:47:37.121Z,1.30
2022-09-15T06:50:05.124Z,1.40
2022-09-15T06:52:32.602Z,1.65
2022-09-15T06:55:00.127Z,1.30
2022-09-15T06:57:27.609Z,1.42
2022-09-15T06:59:55.126Z,1.40
2022-09-15T07:02:22.709Z,1.73
2022-09-15T07:04:51.850Z,1.40
2022-09-15T07:07:19.354Z,1.25
2022-09-15T07:09:49.026Z,1.52
2022-09-15T07:12:16.798Z,1.40
2022-09-15T07:14:44.310Z,1.10
2022-09-15T07:17:11.772Z,1.40
2022-09-15T07:19:41.351Z,1.60
2022-09-15T07:22:11.954Z,1.70
2022-09-15T07:24:39.444Z,1.23
2022-09-15T07:27:08.292Z,1.23
2022-09-15T07:29:37.845Z,1.30
2022-09-15T07:32:05.905Z,1.23
2022-09-15T07:34:33.467Z,1.27
2022-09-15T07:37:01.136Z,1.50
2022-09-15T07:39:30.394Z,1.30
2022-09-15T07:41:57.920Z,1.73
2022-09-15T07:44:25.530Z,1.70
2022-09-15T07:46:53.005Z,1.38
2022-09-15T07:49:20.530Z,1.33
2022-09-15T07:51:48.019Z,1.43
2022-09-15T07:54:20.765Z,1.30
2022-09-15T07:56:50.905Z,1.75
2022-09-15T07:59:18.415Z,1.30
2022-09-15T08:01:46.480Z,1.40
2022-09-15T08:04:14.033Z,1.40
2022-09-15T08:06:41.580Z,1.27
2022-09-15T08:09:14.525Z,1.13
2022-09-15T08:11:42.707Z,1.15
2022-09-15T08:14:11.565Z,1.23
2022-09-15T08:16:39.523Z,1.40
2022-09-15T08:19:07.034Z,1.35
2022-09-15T08:21:34.585Z,1.30
2022-09-15T08:24:02.262Z,1.40
2022-09-15T08:26:30.921Z,1.17
2022-09-15T08:28:59.265Z,1.40
2022-09-15T08:31:28.179Z,1.40
2022-09-15T08:33:56.141Z,1.40
2022-09-15T08:36:24.539Z,1.20
2022-09-15T08:38:52.139Z,1.20
2022-09-15T08:41:21.152Z,1.40
2022-09-15T08:43:51.828Z,1.10
2022-09-15T08:46:22.769Z,1.48
2022-09-15T08:48:56.274Z,1.27
2022-09-15T08:51:31.122Z,1.52
2022-09-15T08:54:01.668Z,1.70
2022-09-15T08:56:30.002Z,1.70
2022-09-15T08:58:57.527Z,1.50
2022-09-15T09:01:32.913Z,1.23
2022-09-15T09:04:09.317Z,1.30
2022-09-15T09:06:42.603Z,1.60
2022-09-15T09:09:14.761Z,1.73
2022-09-15T09:11:55.740Z,2.03
2022-09-15T09:14:27.933Z,1.95
2022-09-15T09:17:02.568Z,1.88
2022-09-15T09:19:37.418Z,2.00
2022-09-15T09:22:07.817Z,1.77
2022-09-15T09:24:37.703Z,2.20
2022-09-15T09:27:05.405Z,1.98
2022-09-15T09:29:35.767Z,2.13
2022-09-15T09:32:03.414Z,2.30
2022-09-15T09:34:35.322Z,2.50
2022-09-15T09:37:11.398Z,2.28
2022-09-15T09:39:38.889Z,2.20
2022-09-15T09:42:06.870Z,2.50
2022-09-15T09:44:35.258Z,2.20
2022-09-15T09:47:02.754Z,2.53
2022-09-15T09:49:34.320Z,2.27
2022-09-15T09:52:03.591Z,2.15
2022-09-15T09:54:33.194Z,2.40
2022-09-15T09:57:15.535Z,2.47
2022-09-15T09:59:44.108Z,2.42
2022-09-15T10:02:15.785Z,2.47
2022-09-15T10:04:43.843Z,2.70
2022-09-15T10:07:12.041Z,2.58
2022-09-15T10:09:41.289Z,2.20
2022-09-15T10:12:17.392Z,3.03
2022-09-15T10:14:52.496Z,1.60
2022-09-15T10:17:21.244Z,1.53
2022-09-15T10:19:49.875Z,1.58
2022-09-15T10:22:25.378Z,1.90
2022-09-15T10:24:54.281Z,1.42
2022-09-15T10:27:27.098Z,1.63
2022-09-15T10:29:54.965Z,1.43
2022-09-15T10:32:27.571Z,1.48
2022-09-15T10:35:02.286Z,1.95
2022-09-15T10:37:32.366Z,1.98
2022-09-15T10:40:02.190Z,2.40
2022-09-15T10:42:44.633Z,2.53
2022-09-15T10:45:18.403Z,1.90
2022-09-15T10:47:52.445Z,2.05
2022-09-15T10:50:26.748Z,1.40
2022-09-15T10:52:58.435Z,2.33
2022-09-15T10:55:52.156Z,2.00
2022-09-15T10:58:26.341Z,2.53
2022-09-15T11:01:01.292Z,2.38
2022-09-15T11:03:41.157Z,2.15
2022-09-15T11:06:14.400Z,2.70
2022-09-15T11:08:47.281Z,1.80
2022-09-15T11:11:18.495Z,1.67
2022-09-15T11:13:51.280Z,1.70
2022-09-15T11:16:28.234Z,1.55
2022-09-15T11:19:03.894Z,1.50
2022-09-15T11:21:33.917Z,1.80
2022-09-15T11:24:19.395Z,2.20
2022-09-15T11:26:51.239Z,2.15
2022-09-15T11:29:21.427Z,1.80
2022-09-15T11:31:50.640Z,1.80
2022-09-15T11:34:20.999Z,2.07
2022-09-15T11:36:50.421Z,1.40
2022-09-15T11:39:20.430Z,1.67
2022-09-15T11:41:56.365Z,1.30
2022-09-15T11:44:25.906Z,1.50
2022-09-15T11:46:59.619Z,1.10
2022-09-15T11:49:29.157Z,1.27
2022-09-15T11:51:59.873Z,1.38
2022-09-15T11:54:31.635Z,1.27
2022-09-15T11:57:01.144Z,1.27
2022-09-15T11:59:30.748Z,1.43
2022-09-15T12:02:00.473Z,1.83
2022-09-15T12:04:29.402Z,1.70
2022-09-15T12:07:01.030Z,2.08
2022-09-15T12:09:29.225Z,2.00
2022-09-15T12:11:58.577Z,1.80
2022-09-15T12:14:31.492Z,1.67
2022-09-15T12:16:59.215Z,2.15
2022-09-15T12:19:42.080Z,1.85
2022-09-15T12:22:12.835Z,1.92
2022-09-15T12:24:45.890Z,1.40
2022-09-15T12:27:16.460Z,1.00
2022-09-15T12:29:50.546Z,1.52
2022-09-15T12:32:19.176Z,1.50
2022-09-15T12:34:56.451Z,1.60
2022-09-15T12:37:25.586Z,1.33
2022-09-15T12:39:54.204Z,1.30
2022-09-15T12:42:23.265Z,1.33
2022-09-15T12:44:53.906Z,1.48
2022-09-15T12:47:24.337Z,1.17
2022-09-15T12:49:52.788Z,1.00
2022-09-15T12:52:20.758Z,1.40
2022-09-15T12:54:52.111Z,1.35
2022-09-15T12:57:22.503Z,1.70
2022-09-15T12:59:49.999Z,1.63
2022-09-15T13:02:35.349Z,1.70
2022-09-15T13:05:04.599Z,1.60
2022-09-15T13:07:33.840Z,2.00
2022-09-15T13:10:17.125Z,2.03
2022-09-15T13:12:49.460Z,2.10
2022-09-15T13:15:18.641Z,1.40
2022-09-15T13:17:47.477Z,1.83
2022-09-15T13:20:23.238Z,1.80
2022-09-15T13:22:53.155Z,2.20
2022-09-15T13:25:23.362Z,2.05
2022-09-15T13:27:53.185Z,1.90
2022-09-15T13:30:30.166Z,1.83
2022-09-15T13:33:02.030Z,1.55
2022-09-15T13:35:41.462Z,1.88
2022-09-15T13:38:35.939Z,1.60
2022-09-15T13:41:22.353Z,1.60
2022-09-15T13:44:17.850Z,1.50
2022-09-15T13:46:50.788Z,1.83
2022-09-15T13:49:28.787Z,1.80
2022-09-15T13:52:00.817Z,1.55
2022-09-15T13:54:28.317Z,1.43
2022-09-15T13:57:00.128Z,1.55
2022-09-15T13:59:29.517Z,1.65
2022-09-15T14:01:58.842Z,1.80
2022-09-15T14:04:27.860Z,1.80
2022-09-15T14:07:00.014Z,1.40
2022-09-15T14:09:33.135Z,1.30
2022-09-15T14:12:03.574Z,1.75
2022-09-15T14:14:33.946Z,1.25
2022-09-15T14:17:01.656Z,1.58
2022-09-15T14:19:31.171Z,1.37
2022-09-15T14:21:59.150Z,1.58
2022-09-15T14:24:28.606Z,1.20
2022-09-15T14:26:58.062Z,1.40
2022-09-15T14:29:26.021Z,1.38
2022-09-15T14:31:54.265Z,1.40
2022-09-15T14:34:23.156Z,1.33
2022-09-15T14:36:57.232Z,1.00
2022-09-15T14:39:24.981Z,1.40
2022-09-15T14:41:52.571Z,1.42
2022-09-15T14:47:13.725Z,1.20
2022-09-15T14:49:41.322Z,1.25
2022-09-15T14:52:20.042Z,1.17
2022-09-15T14:54:47.720Z,1.23
2022-09-15T14:57:15.977Z,1.10
2022-09-15T14:59:48.268Z,1.15
2022-09-15T15:02:21.029Z,1.00
2022-09-15T15:04:52.498Z,1.45
2022-09-15T15:07:23.348Z,0.93
2022-09-15T15:09:52.638Z,1.20
2022-09-15T15:12:23.941Z,1.10
2022-09-15T15:14:54.294Z,1.30
2022-09-15T15:17:26.919Z,1.50
2022-09-15T15:19:59.264Z,1.55
2022-09-15T15:22:26.776Z,1.30
2022-09-15T15:24:54.781Z,1.00
2022-09-15T15:27:25.879Z,1.20
2022-09-15T15:29:54.725Z,1.13
2022-09-15T15:32:23.303Z,1.33
2022-09-15T15:34:51.535Z,1.50
2022-09-15T15:37:24.809Z,1.27
2022-09-15T15:39:52.500Z,1.05
2022-09-15T15:42:20.262Z,1.25
2022-09-15T15:45:01.784Z,1.27
2022-09-15T15:47:30.305Z,1.13
2022-09-15T15:50:12.922Z,1.00
2022-09-15T15:52:41.535Z,1.30
2022-09-15T15:55:09.424Z,1.25
2022-09-15T15:57:38.693Z,0.88
2022-09-15T16:00:18.959Z,1.30
2022-09-15T16:02:48.566Z,1.02
2022-09-15T16:05:16.180Z,1.23
2022-09-15T16:07:44.815Z,1.30
2022-09-15T16:10:15.904Z,1.45
2022-09-15T16:12:44.346Z,1.53
2022-09-15T16:15:14.898Z,1.20
2022-09-15T16:17:46.017Z,1.40
2022-09-15T16:20:15.888Z,1.50
2022-09-15T16:22:43.533Z,1.33
2022-09-15T16:25:14.294Z,1.20
2022-09-15T16:27:41.854Z,1.35
2022-09-15T16:30:12.025Z,1.40
2022-09-15T16:32:41.312Z,1.58
2022-09-15T16:35:18.627Z,1.52
2022-09-15T16:37:46.118Z,1.87
2022-09-15T16:40:13.685Z,1.67
2022-09-15T16:42:41.386Z,1.13
2022-09-15T16:45:18.337Z,1.33
2022-09-15T16:47:47.153Z,1.00
2022-09-15T16:50:14.727Z,1.47
2022-09-15T16:52:42.209Z,1.30
2022-09-15T16:55:15.456Z,1.40
2022-09-15T16:57:42.929Z,1.30
2022-09-15T17:00:11.185Z,1.52
2022-09-15T17:02:38.659Z,1.60
2022-09-15T17:05:14.494Z,1.45
2022-09-15T17:07:41.980Z,1.02
2022-09-15T17:10:09.587Z,1.00
2022-09-15T17:12:37.391Z,1.38
2022-09-15T17:15:11.725Z,1.10
2022-09-15T17:17:39.201Z,1.00
2022-09-15T17:20:07.135Z,1.08
2022-09-15T17:22:35.979Z,1.48
2022-09-15T17:25:06.120Z,1.15
2022-09-15T17:27:33.571Z,1.60
2022-09-15T17:30:01.101Z,1.40
2022-09-15T17:32:32.848Z,1.40
2022-09-15T17:35:03.651Z,1.67
2022-09-15T17:37:31.232Z,1.73
2022-09-15T17:40:01.130Z,1.10
2022-09-15T17:42:28.725Z,1.40
2022-09-15T17:44:56.242Z,1.40
2022-09-15T17:47:23.723Z,1.45
2022-09-15T17:49:51.474Z,1.58
2022-09-15T17:52:18.977Z,1.80
2022-09-15T17:54:46.514Z,1.40
2022-09-15T17:57:15.379Z,1.50
2022-09-15T17:59:42.863Z,1.20
2022-09-15T18:02:17.275Z,2.10
2022-09-15T18:04:44.882Z,1.40
2022-09-15T18:07:12.616Z,1.20
2022-09-15T18:09:40.107Z,1.20
2022-09-15T18:12:07.615Z,1.70
2022-09-15T18:14:36.594Z,2.08
2022-09-15T18:17:04.196Z,1.30
2022-09-15T18:19:31.670Z,1.40
2022-09-15T18:21:59.213Z,1.20
2022-09-15T18:24:26.704Z,1.25
2022-09-15T18:26:54.446Z,1.27
2022-09-15T18:29:21.937Z,1.10
2022-09-15T18:31:50.769Z,0.93
2022-09-15T18:34:18.265Z,1.00
2022-09-15T18:36:45.821Z,1.23
2022-09-15T18:39:13.372Z,1.17
2022-09-15T18:41:41.049Z,1.23
2022-09-15T18:44:08.678Z,1.00
2022-09-15T18:46:39.129Z,1.48
2022-09-15T18:49:09.435Z,1.25
2022-09-15T18:51:51.140Z,1.10
2022-09-15T18:54:19.333Z,1.00
2022-09-15T18:56:46.826Z,1.02
2022-09-15T18:59:17.526Z,1.10
2022-09-15T19:01:45.448Z,1.10
2022-09-15T19:04:14.436Z,0.95
2022-09-15T19:06:41.930Z,0.90
2022-09-15T19:09:09.791Z,1.00
2022-09-15T19:11:37.317Z,1.10
2022-09-15T19:14:04.800Z,1.10
2022-09-15T19:16:53.938Z,1.00
2022-09-15T19:19:21.910Z,1.00
2022-09-15T19:21:49.389Z,1.00
2022-09-15T19:24:17.117Z,1.10
2022-09-15T19:26:44.749Z,0.88
2022-09-15T19:29:12.588Z,1.08
2022-09-15T19:31:42.188Z,1.13
2022-09-15T19:34:09.797Z,1.10
2022-09-15T19:36:38.733Z,1.20
2022-09-15T19:39:06.276Z,1.08
2022-09-15T19:41:33.782Z,0.70
2022-09-15T19:44:01.835Z,1.20
2022-09-15T19:46:29.352Z,1.02
2022-09-15T19:48:57.200Z,0.90
2022-09-15T19:51:25.010Z,0.90
2022-09-15T19:53:56.077Z,1.00
2022-09-15T19:56:26.162Z,1.00
2022-09-15T19:58:55.682Z,1.02
2022-09-15T20:01:23.897Z,0.80
2022-09-15T20:03:53.214Z,0.82
2022-09-15T20:06:20.711Z,0.98
2022-09-15T20:08:48.331Z,0.80
2022-09-15T20:11:17.696Z,0.98
2022-09-15T20:13:46.329Z,0.95
2022-09-15T20:16:15.483Z,0.90
2022-09-15T20:18:43.031Z,0.90
2022-09-15T20:21:21.765Z,1.00
2022-09-15T20:23:56.277Z,0.90
2022-09-15T20:26:25.231Z,0.88
2022-09-15T20:28:53.555Z,1.00
2022-09-15T20:31:22.072Z,1.38
2022-09-15T20:33:50.113Z,1.10
2022-09-15T20:36:18.590Z,0.90
2022-09-15T20:38:46.598Z,1.55
2022-09-15T20:41:15.561Z,1.02
2022-09-15T20:43:44.980Z,0.80
2022-09-15T20:46:13.293Z,0.87
2022-09-15T20:48:41.088Z,1.10
2022-09-15T20:51:09.537Z,0.90
2022-09-15T20:53:37.355Z,1.10
2022-09-15T20:56:04.810Z,1.23
2022-09-15T20:58:34.158Z,1.00
2022-09-15T21:46:50.093Z,1.08
2022-09-15T21:49:18.302Z,0.85
2022-09-15T21:51:45.797Z,0.80
2022-09-15T21:54:13.663Z,0.93
2022-09-15T21:56:41.331Z,0.90
2022-09-15T21:59:09.358Z,1.00
2022-09-15T22:01:36.878Z,1.17
2022-09-15T22:04:06.709Z,0.70
2022-09-15T22:06:35.458Z,0.80
2022-09-15T22:09:04.095Z,0.90
2022-09-15T22:11:32.030Z,1.00
2022-09-15T22:13:59.489Z,0.73
2022-09-15T22:16:27.080Z,1.20
2022-09-15T22:18:55.339Z,0.77
2022-09-15T22:21:24.909Z,1.40
2022-09-15T22:23:54.420Z,0.88
2022-09-15T22:26:23.181Z,1.00
2022-09-15T22:28:50.785Z,0.90
2022-09-15T22:31:19.419Z,0.82
2022-09-15T22:33:46.938Z,1.10
2022-09-15T22:36:15.406Z,1.10
2022-09-15T22:38:44.675Z,1.17
2022-09-15T22:41:13.298Z,1.00
2022-09-15T22:43:41.836Z,1.02
2022-09-15T22:46:09.654Z,0.80
2022-09-15T22:48:42.459Z,0.80
2022-09-15T22:51:11.403Z,0.95
2022-09-15T22:53:39.414Z,0.90
2022-09-15T22:56:09.347Z,0.98
2022-09-15T22:58:37.254Z,1.10
2022-09-15T23:01:05.699Z,0.90
2022-09-15T23:03:33.370Z,0.90
2022-09-15T23:06:00.927Z,0.90
2022-09-15T23:08:28.775Z,1.00
2022-09-15T23:11:01.461Z,0.80
2022-09-15T23:13:30.572Z,0.90
2022-09-15T23:15:58.079Z,1.10
2022-09-15T23:18:26.931Z,1.10
2022-09-15T23:20:58.449Z,1.02
2022-09-15T23:23:28.130Z,0.90
2022-09-15T23:25:55.791Z,1.20
2022-09-15T23:28:23.517Z,1.05
2022-09-15T23:30:56.183Z,0.80
2022-09-15T23:33:24.077Z,0.90
2022-09-15T23:35:51.547Z,0.80
2022-09-15T23:38:19.294Z,0.90
2022-09-15T23:40:47.574Z,0.75
2022-09-15T23:43:15.530Z,0.87
2022-09-15T23:45:43.570Z,0.88
2022-09-15T23:48:13.284Z,1.02
2022-09-15T23:50:41.499Z,1.17
2022-09-15T23:53:09.149Z,0.73
2022-09-15T23:55:37.097Z,1.07
2022-09-15T23:58:05.151Z,1.00
